createdAt,value
2022-12-15T00:00:59.600Z,7.09
2022-12-15T00:03:26.120Z,6.73
2022-12-15T00:05:52.616Z,7.27
2022-12-15T00:08:18.952Z,6.99
2022-12-15T00:10:45.316Z,6.81
2022-12-15T00:13:11.646Z,6.29
2022-12-15T00:15:38.045Z,5.64
2022-12-15T00:18:04.530Z,5.75
2022-12-15T00:20:30.914Z,5.62
2022-12-15T00:22:57.306Z,5.63
2022-12-15T00:25:23.640Z,5.88
2022-12-15T00:27:49.976Z,6.01
2022-12-15T00:30:16.318Z,5.98
2022-12-15T00:32:42.648Z,6.14
2022-12-15T00:35:09.015Z,6.24
2022-12-15T00:37:35.400Z,6.35
2022-12-15T00:40:01.778Z,6.64
2022-12-15T00:42:28.120Z,6.60
2022-12-15T00:44:54.493Z,6.96
2022-12-15T00:47:20.823Z,7.03
2022-12-15T00:49:47.159Z,6.85
2022-12-15T00:52:13.525Z,7.47
2022-12-15T00:54:39.901Z,6.92
2022-12-15T00:57:06.305Z,6.91
2022-12-15T00:59:32.686Z,6.90
2022-12-15T01:01:59.221Z,6.95
2022-12-15T01:04:25.663Z,6.88
2022-12-15T01:06:52.061Z,7.12
2022-12-15T01:09:18.395Z,6.66
2022-12-15T01:11:44.765Z,6.52
2022-12-15T01:14:11.151Z,6.39
2022-12-15T01:16:37.626Z,6.52
2022-12-15T01:19:04.054Z,6.83
2022-12-15T01:21:30.380Z,6.73
2022-12-15T01:23:56.739Z,6.75
2022-12-15T01:26:23.071Z,6.85
2022-12-15T01:28:49.447Z,6.78
2022-12-15T01:31:15.922Z,6.81
2022-12-15T01:33:42.338Z,6.52
2022-12-15T01:36:08.713Z,6.94
2022-12-15T01:38:35.047Z,6.93
2022-12-15T01:41:01.370Z,6.41
2022-12-15T01:43:27.794Z,6.47
2022-12-15T01:45:54.248Z,6.03
2022-12-15T01:48:20.613Z,5.62
2022-12-15T01:50:46.990Z,5.00
2022-12-15T01:53:13.368Z,4.80
2022-12-15T01:55:39.750Z,6.25
2022-12-15T01:58:06.133Z,5.95
2022-12-15T02:00:32.600Z,6.19
2022-12-15T02:02:59.132Z,5.82
2022-12-15T02:05:25.593Z,5.62
2022-12-15T02:07:51.929Z,5.88
2022-12-15T02:10:18.271Z,6.70
2022-12-15T02:12:44.600Z,7.52
2022-12-15T02:15:10.977Z,7.64
2022-12-15T02:17:37.319Z,7.05
2022-12-15T02:20:03.668Z,6.66
2022-12-15T02:22:29.995Z,5.98
2022-12-15T02:24:56.373Z,5.57
2022-12-15T02:27:22.764Z,5.96
2022-12-15T02:29:49.116Z,6.09
2022-12-15T02:32:15.445Z,5.28
2022-12-15T02:34:41.775Z,5.66
2022-12-15T02:37:08.099Z,6.33
2022-12-15T02:39:34.423Z,6.80
2022-12-15T02:42:00.759Z,6.94
2022-12-15T02:44:27.129Z,6.59
2022-12-15T02:46:53.511Z,6.78
2022-12-15T02:49:19.850Z,5.95
2022-12-15T02:51:46.179Z,5.96
2022-12-15T02:54:12.522Z,5.99
2022-12-15T02:56:38.861Z,5.93
2022-12-15T02:59:05.245Z,5.74
2022-12-15T03:01:31.755Z,5.83
2022-12-15T03:03:58.210Z,5.66
2022-12-15T03:06:24.581Z,5.49
2022-12-15T03:08:50.962Z,5.64
2022-12-15T03:11:17.294Z,6.30
2022-12-15T03:13:43.657Z,6.15
2022-12-15T03:16:10.057Z,5.49
2022-12-15T03:18:36.428Z,5.38
2022-12-15T03:21:02.748Z,5.45
2022-12-15T03:23:29.620Z,5.55
2022-12-15T03:25:56.327Z,5.47
2022-12-15T03:28:22.705Z,5.60
2022-12-15T03:30:50.306Z,6.29
2022-12-15T03:33:17.058Z,5.99
2022-12-15T03:35:43.382Z,5.36
2022-12-15T03:38:09.750Z,6.27
2022-12-15T03:40:36.139Z,6.45
2022-12-15T03:43:02.519Z,6.70
2022-12-15T03:45:28.855Z,6.54
2022-12-15T03:47:55.188Z,7.24
2022-12-15T03:50:21.515Z,7.58
2022-12-15T03:52:47.891Z,7.34
2022-12-15T03:55:14.265Z,7.32
2022-12-15T03:57:40.609Z,6.80
2022-12-15T04:00:06.968Z,6.70
2022-12-15T04:02:33.462Z,7.96
2022-12-15T04:04:59.938Z,7.78
2022-12-15T04:07:26.320Z,7.29
2022-12-15T04:09:52.714Z,7.67
2022-12-15T04:12:19.048Z,8.28
2022-12-15T04:14:45.421Z,7.61
2022-12-15T04:17:11.844Z,7.46
2022-12-15T04:19:38.211Z,7.14
2022-12-15T04:22:04.587Z,6.87
2022-12-15T04:24:30.967Z,6.37
2022-12-15T04:26:57.300Z,5.10
2022-12-15T04:29:23.674Z,4.96
2022-12-15T04:31:50.016Z,4.70
2022-12-15T04:34:16.351Z,4.85
2022-12-15T04:36:42.676Z,4.75
2022-12-15T04:39:09.008Z,4.68
2022-12-15T04:41:35.348Z,4.39
2022-12-15T04:44:01.676Z,4.63
2022-12-15T04:46:28.090Z,4.28
2022-12-15T04:48:54.440Z,4.47
2022-12-15T04:51:22.735Z,4.25
2022-12-15T04:53:50.296Z,4.46
2022-12-15T04:56:18.675Z,4.13
2022-12-15T04:58:45.247Z,4.01
2022-12-15T05:01:11.639Z,4.53
2022-12-15T05:03:38.042Z,4.41
2022-12-15T05:06:04.379Z,4.54
2022-12-15T05:08:30.703Z,4.41
2022-12-15T05:10:57.028Z,4.67
2022-12-15T05:13:23.397Z,4.31
2022-12-15T05:15:49.943Z,4.07
2022-12-15T05:18:16.339Z,4.46
2022-12-15T05:20:42.875Z,3.94
2022-12-15T05:23:09.204Z,4.08
2022-12-15T05:25:35.571Z,4.10
2022-12-15T05:28:01.955Z,4.17
2022-12-15T05:30:28.342Z,3.89
2022-12-15T05:32:54.715Z,4.32
2022-12-15T05:35:21.108Z,3.91
2022-12-15T05:37:47.557Z,4.28
2022-12-15T05:40:13.896Z,4.17
2022-12-15T05:42:40.291Z,4.47
2022-12-15T05:45:06.694Z,4.04
2022-12-15T05:47:33.063Z,4.26
2022-12-15T05:49:59.438Z,3.94
2022-12-15T05:52:25.781Z,3.86
2022-12-15T05:54:52.107Z,3.68
2022-12-15T05:57:18.481Z,4.07
2022-12-15T05:59:44.878Z,3.99
2022-12-15T06:02:11.305Z,4.02
2022-12-15T06:04:37.800Z,4.11
2022-12-15T06:07:04.254Z,3.40
2022-12-15T06:09:30.597Z,3.47
2022-12-15T06:11:56.932Z,3.46
2022-12-15T06:14:23.303Z,3.13
2022-12-15T06:16:50.259Z,3.34
2022-12-15T06:19:17.606Z,3.31
2022-12-15T06:21:44.007Z,3.48
2022-12-15T06:24:10.403Z,3.48
2022-12-15T06:26:36.792Z,3.55
2022-12-15T06:29:03.177Z,4.05
2022-12-15T06:31:29.553Z,3.96
2022-12-15T06:34:01.429Z,3.75
2022-12-15T06:36:28.755Z,3.66
2022-12-15T06:38:55.153Z,3.76
2022-12-15T06:41:21.509Z,3.66
2022-12-15T06:43:47.836Z,3.55
2022-12-15T06:46:14.232Z,3.60
2022-12-15T06:48:40.671Z,3.75
2022-12-15T06:51:10.805Z,4.25
2022-12-15T06:53:41.450Z,4.59
2022-12-15T06:56:07.794Z,4.47
2022-12-15T06:58:34.152Z,4.64
2022-12-15T07:01:00.499Z,4.45
2022-12-15T07:03:27.069Z,4.34
2022-12-15T07:05:53.524Z,4.12
2022-12-15T07:08:19.862Z,4.03
2022-12-15T07:10:46.184Z,4.18
2022-12-15T07:13:12.536Z,4.30
2022-12-15T07:15:38.871Z,4.55
2022-12-15T07:18:05.245Z,4.38
2022-12-15T07:20:31.612Z,5.00
2022-12-15T07:22:58.015Z,4.74
2022-12-15T07:25:24.342Z,4.32
2022-12-15T07:27:50.881Z,4.51
2022-12-15T07:30:17.265Z,4.32
2022-12-15T07:32:43.601Z,5.01
2022-12-15T07:35:16.349Z,5.06
2022-12-15T07:37:42.728Z,5.02
2022-12-15T07:40:09.105Z,5.06
2022-12-15T07:42:35.459Z,5.12
2022-12-15T07:45:01.797Z,5.07
2022-12-15T07:47:28.136Z,5.11
2022-12-15T07:49:54.470Z,4.88
2022-12-15T07:52:20.809Z,4.94
2022-12-15T07:54:47.140Z,5.40
2022-12-15T07:57:13.513Z,5.62
2022-12-15T07:59:39.851Z,5.89
2022-12-15T08:02:06.353Z,5.79
2022-12-15T08:04:32.946Z,5.80
2022-12-15T08:06:59.332Z,6.08
2022-12-15T08:09:25.717Z,6.35
2022-12-15T08:11:52.072Z,6.30
2022-12-15T08:14:19.027Z,5.86
2022-12-15T08:16:45.707Z,6.10
2022-12-15T08:19:12.147Z,6.55
2022-12-15T08:21:38.496Z,6.57
2022-12-15T08:24:04.828Z,6.42
2022-12-15T08:26:31.723Z,6.60
2022-12-15T08:29:11.876Z,6.89
2022-12-15T08:31:44.146Z,6.80
2022-12-15T08:34:10.517Z,6.34
2022-12-15T08:36:36.856Z,6.46
2022-12-15T08:39:03.222Z,6.91
2022-12-15T08:41:29.619Z,7.05
2022-12-15T08:43:56.005Z,7.18
2022-12-15T08:46:22.555Z,7.25
2022-12-15T08:48:48.963Z,7.65
2022-12-15T08:51:15.299Z,7.50
2022-12-15T08:53:41.734Z,8.32
2022-12-15T08:56:08.146Z,9.44
2022-12-15T08:58:34.499Z,10.10
2022-12-15T09:01:00.908Z,11.46
2022-12-15T09:03:27.401Z,10.40
2022-12-15T09:05:53.835Z,10.95
2022-12-15T09:08:20.175Z,11.78
2022-12-15T09:10:46.510Z,14.44
2022-12-15T09:13:18.859Z,15.73
2022-12-15T09:16:08.904Z,16.35
2022-12-15T09:18:31.526Z,17.86
2022-12-15T09:20:57.914Z,17.82
2022-12-15T09:23:24.300Z,17.67
2022-12-15T09:25:50.684Z,18.32
2022-12-15T09:28:17.043Z,18.09
2022-12-15T09:30:43.515Z,17.53
2022-12-15T09:33:09.925Z,15.48
2022-12-15T09:35:36.283Z,15.15
2022-12-15T09:38:02.656Z,14.79
2022-12-15T09:40:29.008Z,15.28
2022-12-15T09:43:25.620Z,14.47
2022-12-15T09:45:41.770Z,13.75
2022-12-15T09:48:08.186Z,13.04
2022-12-15T09:50:34.561Z,13.70
2022-12-15T09:53:00.938Z,13.35
2022-12-15T09:55:27.362Z,13.79
2022-12-15T09:57:53.711Z,14.91
2022-12-15T10:00:20.643Z,14.69
2022-12-15T10:02:47.136Z,14.27
2022-12-15T10:05:16.234Z,14.71
2022-12-15T10:07:42.633Z,14.65
2022-12-15T10:10:09.030Z,14.36
2022-12-15T10:12:35.368Z,13.98
2022-12-15T10:15:01.736Z,13.52
2022-12-15T10:17:28.094Z,13.30
2022-12-15T10:19:54.452Z,13.44
2022-12-15T10:22:20.786Z,12.62
2022-12-15T10:27:33.499Z,13.33
2022-12-15T10:29:59.919Z,13.31
2022-12-15T10:32:26.364Z,13.95
2022-12-15T10:34:52.798Z,14.34
2022-12-15T10:37:19.289Z,14.90
2022-12-15T10:39:45.670Z,14.93
2022-12-15T10:42:16.643Z,15.10
2022-12-15T10:44:43.050Z,16.28
2022-12-15T10:47:09.450Z,16.15
2022-12-15T10:49:35.845Z,16.67
2022-12-15T10:52:02.178Z,17.30
2022-12-15T10:54:28.565Z,18.15
2022-12-15T10:56:54.950Z,18.39
2022-12-15T10:59:21.344Z,18.07
2022-12-15T11:01:47.811Z,17.63
2022-12-15T11:04:17.478Z,16.96
2022-12-15T11:06:43.847Z,17.16
2022-12-15T11:09:11.526Z,17.39
2022-12-15T11:11:37.933Z,16.59
2022-12-15T11:14:04.339Z,17.29
2022-12-15T11:16:30.690Z,17.14
2022-12-15T11:18:57.070Z,17.29
2022-12-15T11:21:23.451Z,17.24
2022-12-15T11:23:50.352Z,17.06
2022-12-15T11:26:16.846Z,16.78
2022-12-15T11:28:43.241Z,17.61
2022-12-15T11:31:09.619Z,17.22
2022-12-15T11:33:36.307Z,16.24
2022-12-15T11:36:02.842Z,16.55
2022-12-15T11:38:29.257Z,17.77
2022-12-15T11:40:55.665Z,15.27
2022-12-15T11:43:22.049Z,15.21
2022-12-15T11:45:48.416Z,15.20
2022-12-15T11:48:15.363Z,15.01
2022-12-15T11:50:41.739Z,14.74
2022-12-15T11:53:08.128Z,14.38
2022-12-15T11:55:40.855Z,14.07
2022-12-15T11:58:07.672Z,14.08
2022-12-15T12:00:34.041Z,14.00
2022-12-15T12:03:00.452Z,13.95
2022-12-15T12:05:26.913Z,13.79
2022-12-15T12:07:53.449Z,12.87
2022-12-15T12:10:19.869Z,12.40
2022-12-15T12:12:46.245Z,12.98
2022-12-15T12:15:16.885Z,13.13
2022-12-15T12:17:43.243Z,12.10
2022-12-15T12:20:11.463Z,11.31
2022-12-15T12:22:38.078Z,11.39
2022-12-15T12:25:04.502Z,11.34
2022-12-15T12:27:30.849Z,10.82
2022-12-15T12:29:57.189Z,11.03
2022-12-15T12:32:23.539Z,10.72
2022-12-15T12:34:51.129Z,10.96
2022-12-15T12:37:17.715Z,10.51
2022-12-15T12:39:44.051Z,10.47
2022-12-15T12:42:11.627Z,9.94
2022-12-15T12:44:37.960Z,10.47
2022-12-15T12:47:04.286Z,10.11
2022-12-15T12:49:30.640Z,10.38
2022-12-15T12:51:57.001Z,10.45
2022-12-15T12:54:23.370Z,10.90
2022-12-15T12:59:36.159Z,11.71
2022-12-15T13:02:02.622Z,10.93
2022-12-15T13:04:29.057Z,10.88
2022-12-15T13:06:55.400Z,21.73
2022-12-15T13:09:21.740Z,11.83
2022-12-15T13:11:49.124Z,11.82
2022-12-15T13:14:21.056Z,11.33
2022-12-15T13:17:17.206Z,11.42
2022-12-15T13:19:36.893Z,11.54
2022-12-15T13:22:03.322Z,11.71
2022-12-15T13:24:29.663Z,11.55
2022-12-15T13:26:56.045Z,11.38
2022-12-15T13:29:22.385Z,11.48
2022-12-15T13:31:49.209Z,11.51
2022-12-15T13:34:15.689Z,11.95
2022-12-15T13:36:42.035Z,11.91
2022-12-15T13:39:08.377Z,11.32
2022-12-15T13:41:34.781Z,11.87
2022-12-15T13:44:01.170Z,11.68
2022-12-15T13:46:27.689Z,11.95
2022-12-15T13:48:54.190Z,11.56
2022-12-15T13:51:20.638Z,11.53
2022-12-15T13:53:51.679Z,11.59
2022-12-15T13:56:18.327Z,11.71
2022-12-15T13:58:44.700Z,11.10
2022-12-15T14:01:11.923Z,11.06
2022-12-15T14:03:38.611Z,11.79
2022-12-15T14:06:05.274Z,12.10
2022-12-15T14:08:31.616Z,11.66
2022-12-15T14:10:58.025Z,11.32
2022-12-15T14:13:24.418Z,11.28
2022-12-15T14:15:51.076Z,10.71
2022-12-15T14:18:17.437Z,10.46
2022-12-15T14:20:43.772Z,10.60
2022-12-15T14:23:10.105Z,10.39
2022-12-15T14:25:36.563Z,9.59
2022-12-15T14:28:05.459Z,9.92
2022-12-15T14:30:34.139Z,9.78
2022-12-15T14:33:00.522Z,9.42
2022-12-15T14:35:26.863Z,9.88
2022-12-15T14:37:53.210Z,10.20
2022-12-15T14:40:24.989Z,9.63
2022-12-15T14:42:54.723Z,9.35
2022-12-15T14:45:21.059Z,9.36
2022-12-15T14:48:05.792Z,9.19
2022-12-15T14:50:33.760Z,9.33
2022-12-15T14:53:00.095Z,9.55
2022-12-15T14:55:26.486Z,8.94
2022-12-15T14:57:52.909Z,8.64
2022-12-15T15:00:19.365Z,8.67
2022-12-15T15:02:45.815Z,8.87
2022-12-15T15:03:09.323Z,10.85
2022-12-15T15:05:12.282Z,8.37
2022-12-15T15:07:38.641Z,8.23
2022-12-15T15:10:04.992Z,8.33
2022-12-15T15:12:31.330Z,7.99
2022-12-15T15:14:57.701Z,8.03
2022-12-15T15:17:24.048Z,8.42
2022-12-15T15:19:50.398Z,7.54
2022-12-15T15:22:16.738Z,7.50
2022-12-15T15:24:43.086Z,7.47
2022-12-15T15:27:09.476Z,7.60
2022-12-15T15:29:35.899Z,7.30
2022-12-15T15:32:02.303Z,7.33
2022-12-15T15:34:28.698Z,7.43
2022-12-15T15:36:55.083Z,7.53
2022-12-15T15:39:21.441Z,6.93
2022-12-15T15:41:47.815Z,6.80
2022-12-15T15:44:14.166Z,6.60
2022-12-15T15:46:40.579Z,6.73
2022-12-15T15:49:06.961Z,6.10
2022-12-15T15:51:33.333Z,7.17
2022-12-15T15:53:59.710Z,7.06
2022-12-15T15:56:26.063Z,7.48
2022-12-15T15:58:52.397Z,7.77
2022-12-15T16:01:18.878Z,7.72
2022-12-15T16:03:45.427Z,7.48
2022-12-15T16:06:11.839Z,7.39
2022-12-15T16:08:38.190Z,7.33
2022-12-15T16:11:04.546Z,7.46
2022-12-15T16:13:30.962Z,7.16
2022-12-15T16:15:57.475Z,7.07
2022-12-15T16:18:23.891Z,6.73
2022-12-15T16:20:50.271Z,8.47
2022-12-15T16:23:16.645Z,8.59
2022-12-15T16:25:50.307Z,7.86
2022-12-15T16:28:17.241Z,8.11
2022-12-15T16:30:43.635Z,7.12
2022-12-15T16:33:09.997Z,7.15
2022-12-15T16:35:36.383Z,6.94
2022-12-15T16:38:02.733Z,6.43
2022-12-15T16:40:29.106Z,6.18
2022-12-15T16:42:55.496Z,6.62
2022-12-15T16:45:21.855Z,6.06
2022-12-15T16:47:48.196Z,5.99
2022-12-15T16:50:14.576Z,6.00
2022-12-15T16:52:40.952Z,6.55
2022-12-15T16:55:07.331Z,6.37
2022-12-15T16:57:33.656Z,6.97
2022-12-15T16:59:59.990Z,6.63
2022-12-15T17:02:29.751Z,6.11
2022-12-15T17:04:56.306Z,5.72
2022-12-15T17:07:22.645Z,5.57
2022-12-15T17:09:49.024Z,5.42
2022-12-15T17:12:15.369Z,5.03
2022-12-15T17:14:41.701Z,5.11
2022-12-15T17:17:08.031Z,5.40
2022-12-15T17:19:34.429Z,5.32
2022-12-15T17:22:00.807Z,6.11
2022-12-15T17:24:27.188Z,7.78
2022-12-15T17:26:53.529Z,8.43
2022-12-15T17:29:19.858Z,6.55
2022-12-15T17:31:46.333Z,5.68
2022-12-15T17:34:12.808Z,6.66
2022-12-15T17:36:39.189Z,5.53
2022-12-15T17:39:05.528Z,5.63
2022-12-15T17:44:35.549Z,5.02
2022-12-15T17:47:03.091Z,5.35
2022-12-15T17:49:35.087Z,5.41
2022-12-15T17:52:02.623Z,6.74
2022-12-15T17:54:28.982Z,6.31
2022-12-15T17:56:55.315Z,7.02
2022-12-15T17:59:21.681Z,4.73
2022-12-15T18:01:48.238Z,3.76
2022-12-15T18:04:14.755Z,3.73
2022-12-15T18:06:41.146Z,3.80
2022-12-15T18:09:07.483Z,3.98
2022-12-15T18:11:33.855Z,4.16
2022-12-15T18:14:00.240Z,3.90
2022-12-15T18:16:26.666Z,4.22
2022-12-15T18:18:53.068Z,10.49
2022-12-15T18:21:19.451Z,5.26
2022-12-15T18:23:45.838Z,4.75
2022-12-15T18:26:12.179Z,4.95
2022-12-15T18:28:38.516Z,5.34
2022-12-15T18:31:04.916Z,4.75
2022-12-15T18:33:31.479Z,3.57
2022-12-15T18:35:58.117Z,3.08
2022-12-15T18:38:24.479Z,3.37
2022-12-15T18:40:50.858Z,3.09
2022-12-15T18:43:17.247Z,3.79
2022-12-15T18:45:43.636Z,3.39
2022-12-15T18:48:09.983Z,3.40
2022-12-15T18:50:36.386Z,4.04
2022-12-15T18:53:02.779Z,3.58
2022-12-15T18:55:29.177Z,3.82
2022-12-15T18:57:55.581Z,3.35
2022-12-15T19:00:23.053Z,3.03
2022-12-15T19:02:49.487Z,3.27
2022-12-15T19:05:15.940Z,3.30
2022-12-15T19:07:42.317Z,3.41
2022-12-15T19:10:08.697Z,3.18
2022-12-15T19:12:35.030Z,3.18
2022-12-15T19:15:01.349Z,3.43
2022-12-15T19:17:27.739Z,3.31
2022-12-15T19:19:54.119Z,3.46
2022-12-15T19:22:20.508Z,4.09
2022-12-15T19:24:46.852Z,4.11
2022-12-15T19:27:13.220Z,4.67
2022-12-15T19:29:39.598Z,4.62
2022-12-15T19:32:05.948Z,5.16
2022-12-15T19:34:32.276Z,5.39
2022-12-15T19:36:58.596Z,5.09
2022-12-15T19:39:24.920Z,5.80
2022-12-15T19:41:51.247Z,6.02
2022-12-15T19:44:17.607Z,5.44
2022-12-15T19:46:43.984Z,5.46
2022-12-15T19:49:10.366Z,5.35
2022-12-15T19:51:36.710Z,5.95
2022-12-15T19:54:03.072Z,5.73
2022-12-15T19:56:29.410Z,5.64
2022-12-15T19:58:55.793Z,5.60
2022-12-15T20:01:22.453Z,5.49
2022-12-15T20:03:48.955Z,6.07
2022-12-15T20:06:15.358Z,6.41
2022-12-15T20:08:41.693Z,6.18
2022-12-15T20:11:08.023Z,6.40
2022-12-15T20:13:35.043Z,5.50
2022-12-15T20:16:01.997Z,5.07
2022-12-15T20:18:28.386Z,5.44
2022-12-15T20:20:54.791Z,5.34
2022-12-15T20:23:21.157Z,5.30
2022-12-15T20:25:47.538Z,5.64
2022-12-15T20:28:13.924Z,5.69
2022-12-15T20:30:40.301Z,5.61
2022-12-15T20:33:06.667Z,5.99
2022-12-15T20:35:33.034Z,6.39
2022-12-15T20:37:59.461Z,5.50
2022-12-15T20:40:25.872Z,5.26
2022-12-15T20:42:52.264Z,5.18
2022-12-15T20:45:18.627Z,5.43
2022-12-15T20:47:45.136Z,5.23
2022-12-15T20:50:11.510Z,4.96
2022-12-15T20:52:37.911Z,4.99
2022-12-15T20:55:04.254Z,4.97
2022-12-15T20:57:30.605Z,4.97
2022-12-15T20:59:56.948Z,4.88
2022-12-15T21:02:23.573Z,4.98
2022-12-15T21:04:50.072Z,5.76
2022-12-15T21:07:16.501Z,5.66
2022-12-15T21:09:42.853Z,4.75
2022-12-15T21:12:09.495Z,5.10
2022-12-15T21:14:35.865Z,5.14
2022-12-15T21:17:02.275Z,5.03
2022-12-15T21:19:28.963Z,4.84
2022-12-15T21:21:55.980Z,5.02
2022-12-15T21:24:22.393Z,5.17
2022-12-15T21:26:48.771Z,4.98
2022-12-15T21:29:15.114Z,5.93
2022-12-15T21:31:41.451Z,6.20
2022-12-15T21:34:07.786Z,5.92
2022-12-15T21:36:34.633Z,5.91
2022-12-15T21:39:01.017Z,5.64
2022-12-15T21:41:27.404Z,5.69
2022-12-15T21:43:54.952Z,5.48
2022-12-15T21:46:26.260Z,5.38
2022-12-15T21:48:54.155Z,5.21
2022-12-15T21:51:21.014Z,5.37
2022-12-15T21:53:47.376Z,5.19
2022-12-15T21:56:13.715Z,5.27
2022-12-15T21:58:40.085Z,5.80
2022-12-15T22:01:06.459Z,5.38
2022-12-15T22:03:32.903Z,5.25
2022-12-15T22:05:59.252Z,5.31
2022-12-15T22:08:25.580Z,5.30
2022-12-15T22:10:52.148Z,5.37
2022-12-15T22:13:18.515Z,5.44
2022-12-15T22:15:44.901Z,5.51
2022-12-15T22:18:11.312Z,5.39
2022-12-15T22:20:37.702Z,5.64
2022-12-15T22:23:04.055Z,5.87
2022-12-15T22:25:30.395Z,5.83
2022-12-15T22:27:56.741Z,5.71
2022-12-15T22:30:23.112Z,5.64
2022-12-15T22:32:49.490Z,5.93
2022-12-15T22:35:15.823Z,5.84
2022-12-15T22:37:42.197Z,5.53
2022-12-15T22:40:08.555Z,5.51
2022-12-15T22:42:34.894Z,5.65
2022-12-15T22:45:02.621Z,5.58
2022-12-15T22:47:28.954Z,6.28
2022-12-15T22:49:55.324Z,6.83
2022-12-15T22:52:21.658Z,6.92
2022-12-15T22:54:48.076Z,7.04
2022-12-15T22:57:14.613Z,7.42
2022-12-15T22:59:41.001Z,6.87
2022-12-15T23:02:07.416Z,7.02
2022-12-15T23:04:34.453Z,6.84
2022-12-15T23:07:00.818Z,6.38
2022-12-15T23:09:27.202Z,6.53
2022-12-15T23:11:53.559Z,6.65
2022-12-15T23:14:21.405Z,6.95
2022-12-15T23:16:47.747Z,6.84
2022-12-15T23:19:14.142Z,7.26
2022-12-15T23:21:40.526Z,7.01
2022-12-15T23:24:06.895Z,7.18
2022-12-15T23:26:33.255Z,7.02
2022-12-15T23:28:59.591Z,6.79
2022-12-15T23:31:25.978Z,6.75
2022-12-15T23:33:52.522Z,6.37
2022-12-15T23:36:18.953Z,6.71
2022-12-15T23:38:45.310Z,6.38
2022-12-15T23:41:11.684Z,5.69
2022-12-15T23:43:38.068Z,5.56
2022-12-15T23:46:04.511Z,5.23
2022-12-15T23:48:30.912Z,5.11
2022-12-15T23:50:57.244Z,5.34
2022-12-15T23:53:23.618Z,5.41
2022-12-15T23:55:49.949Z,5.59
2022-12-15T23:58:18.129Z,5.48
